Terminal Aerodrome Forecast
Issued by NWS Springfield, MO

Home | Current Version | Previous Version | Text Only | Print | Product List | Glossary On
Versions: 1 2 3 4 5 6 7 8 9 10 11 12 13 14 15 16 17 18 19
000
FTUS43 KSGF 271122 CCA
TAFSGF
TAF COR
KSGF 271122Z 2712/2812 20007KT P6SM -TSRA OVC050CB
      TEMPO 2712/2716 4SM TSRA BR OVC035CB
     FM271700 24012G20KT P6SM VCTS SCT040CB BKN120
     FM272000 28015G22KT P6SM VCTS SCT035CB OVC070
     FM280000 35010KT P6SM OVC100=

USA.gov is the U.S. government's official web portal to all federal, state and local government web resources and services.